Time;durP1;ratioP1;P1;durP2;ratioP2;P2;SDS_P1;SDS_P2;PMS_P1;PMS_P2;Temp;Humidity;BMP_temperature;BMP_pressure;BME280_temperature;BME280_humidity;BME280_pressure;Samples;Min_cycle;Max_cycle;Signal;HPM_P1;HPM_P2
2024/03/04 00:00:43;;;;;;;3.10;2.60;;;17.60;66.50;;;;;;5959318;24;20238;-84
2024/03/04 00:03:12;;;;;;;4.22;2.65;;;17.60;66.70;;;;;;5958898;24;20718;-84
2024/03/04 00:05:49;;;;;;;3.53;2.65;;;17.60;66.80;;;;;;5929347;24;20709;-84
2024/03/04 00:08:24;;;;;;;4.55;2.67;;;17.60;66.80;;;;;;5955412;23;20160;-84
2024/03/04 00:10:53;;;;;;;2.83;2.35;;;17.60;66.90;;;;;;5955498;24;20159;-84
2024/03/04 00:13:30;;;;;;;2.90;2.60;;;17.60;67.10;;;;;;5931352;24;20156;-85
2024/03/04 00:16:02;;;;;;;2.80;2.47;;;17.50;67.00;;;;;;5954994;24;20152;-84
2024/03/04 00:18:37;;;;;;;3.08;2.60;;;17.60;66.90;;;;;;5932330;24;20470;-84
2024/03/04 00:21:07;;;;;;;2.95;2.55;;;17.60;66.90;;;;;;5908899;24;20515;-84
2024/03/04 00:23:46;;;;;;;3.42;2.60;;;17.60;67.10;;;;;;5931722;24;20472;-84
2024/03/04 00:26:13;;;;;;;4.20;2.75;;;17.50;67.00;;;;;;5925659;23;20230;-84
2024/03/04 00:28:44;;;;;;;2.85;2.38;;;17.50;67.20;;;;;;5954189;24;20186;-84
2024/03/04 00:31:14;;;;;;;3.40;2.50;;;17.50;67.20;;;;;;5920366;23;20205;-85
2024/03/04 00:33:40;;;;;;;3.22;2.53;;;17.50;67.10;;;;;;5987478;23;20174;-84
2024/03/04 00:36:07;;;;;;;3.58;2.80;;;17.50;67.10;;;;;;5941405;23;20254;-84
2024/03/04 00:38:37;;;;;;;3.45;2.50;;;17.50;67.20;;;;;;5963964;23;20158;-85
2024/03/04 00:41:04;;;;;;;3.45;2.55;;;17.50;67.20;;;;;;5987155;23;20507;-85
2024/03/04 00:43:32;;;;;;;5.25;3.13;;;17.40;67.30;;;;;;5997483;23;20161;-84
2024/03/04 00:46:00;;;;;;;4.00;2.60;;;17.40;67.30;;;;;;6067793;23;20155;-84
2024/03/04 00:48:44;;;;;;;3.47;2.50;;;17.50;67.30;;;;;;6041396;23;20221;-85
2024/03/04 00:51:17;;;;;;;3.25;2.60;;;17.50;68.20;;;;;;5936851;24;20159;-84
2024/03/04 00:53:47;;;;;;;2.65;2.35;;;17.40;67.30;;;;;;5935904;24;20579;-83
2024/03/04 00:56:17;;;;;;;3.30;2.50;;;17.50;67.40;;;;;;5936308;24;20262;-84
2024/03/04 00:58:43;;;;;;;3.05;2.50;;;17.50;67.20;;;;;;5957717;24;20176;-83
2024/03/04 01:01:09;;;;;;;2.88;2.40;;;17.50;67.50;;;;;;5921415;24;20158;-84
2024/03/04 01:03:37;;;;;;;3.45;2.55;;;17.40;67.40;;;;;;5898555;24;20660;-83
2024/03/04 01:06:14;;;;;;;2.92;2.60;;;17.40;67.50;;;;;;5876609;24;20621;-83
2024/03/04 01:08:45;;;;;;;3.15;2.50;;;17.40;67.30;;;;;;5899715;24;20639;-84
2024/03/04 01:11:26;;;;;;;3.40;2.78;;;17.40;67.20;;;;;;5899698;24;20157;-84
2024/03/04 01:13:59;;;;;;;4.60;2.90;;;17.40;67.20;;;;;;5899381;24;20226;-85
2024/03/04 01:16:34;;;;;;;3.17;2.60;;;17.50;67.10;;;;;;5876789;24;20162;-84
2024/03/04 01:19:13;;;;;;;3.20;2.70;;;17.40;66.80;;;;;;5908766;24;20163;-84
2024/03/04 01:21:44;;;;;;;3.30;2.65;;;17.40;67.10;;;;;;5920580;24;20191;-85
2024/03/04 01:24:15;;;;;;;3.63;2.90;;;17.50;67.40;;;;;;5932046;24;20270;-84
2024/03/04 01:26:51;;;;;;;4.50;2.90;;;17.40;67.40;;;;;;5932022;24;20164;-84
2024/03/04 01:29:18;;;;;;;3.50;2.83;;;17.40;66.90;;;;;;5953465;24;20632;-85
2024/03/04 01:31:49;;;;;;;3.13;2.72;;;17.40;67.20;;;;;;5932014;24;20157;-85
2024/03/04 01:34:16;;;;;;;4.05;3.00;;;17.50;68.00;;;;;;5932763;24;20240;-84
2024/03/04 01:36:44;;;;;;;3.55;2.80;;;17.40;67.00;;;;;;5932922;24;20160;-85
2024/03/04 01:39:27;;;;;;;3.70;2.95;;;17.40;67.20;;;;;;5945489;24;20160;-85
2024/03/04 01:42:01;;;;;;;3.88;2.50;;;17.40;66.90;;;;;;5888975;24;20166;-85
2024/03/04 01:44:41;;;;;;;3.53;2.80;;;17.50;67.20;;;;;;5891326;24;20200;-83
2024/03/04 01:47:14;;;;;;;4.55;2.88;;;17.40;67.20;;;;;;5925888;24;20601;-84
2024/03/04 01:49:47;;;;;;;3.08;2.75;;;17.40;67.10;;;;;;5976625;24;20239;-85
2024/03/04 01:52:22;;;;;;;3.33;2.60;;;17.40;67.30;;;;;;5954289;24;20152;-84
2024/03/04 01:55:02;;;;;;;3.42;2.70;;;17.40;67.20;;;;;;5907357;24;20158;-85
2024/03/04 01:57:37;;;;;;;2.92;2.58;;;17.30;66.90;;;;;;5885333;24;20699;-84
2024/03/04 02:00:15;;;;;;;3.10;2.70;;;17.40;67.20;;;;;;5953403;23;20245;-84
2024/03/04 02:02:53;;;;;;;3.05;2.42;;;17.40;67.00;;;;;;5941199;23;20226;-85
2024/03/04 02:05:25;;;;;;;3.00;2.60;;;17.40;66.80;;;;;;5934995;24;20582;-84
2024/03/04 02:08:00;;;;;;;2.97;2.63;;;17.40;67.00;;;;;;5935991;24;20165;-84
2024/03/04 02:10:44;;;;;;;3.90;2.70;;;17.40;66.90;;;;;;5951988;24;20158;-85
2024/03/04 02:13:13;;;;;;;3.83;2.50;;;17.40;67.00;;;;;;5926471;24;20161;-85
2024/03/04 02:15:47;;;;;;;2.90;2.60;;;17.40;66.90;;;;;;5926041;24;20184;-85
2024/03/04 02:18:15;;;;;;;3.13;2.63;;;17.40;67.00;;;;;;5910671;24;20157;-84
2024/03/04 02:20:58;;;;;;;3.25;2.83;;;17.40;67.10;;;;;;5876761;24;20637;-85
2024/03/04 02:23:29;;;;;;;3.97;2.67;;;17.30;67.20;;;;;;5898349;24;20487;-85
2024/03/04 02:26:05;;;;;;;3.13;2.78;;;17.30;67.00;;;;;;5898119;24;20498;-84
2024/03/04 02:28:39;;;;;;;3.40;2.58;;;17.30;67.20;;;;;;5833286;24;20157;-84
2024/03/04 02:31:15;;;;;;;3.25;2.88;;;17.40;66.90;;;;;;5931278;24;20156;-85
2024/03/04 02:33:49;;;;;;;3.33;2.92;;;17.40;67.20;;;;;;5930439;24;20604;-84
2024/03/04 02:36:30;;;;;;;3.90;2.97;;;17.30;67.00;;;;;;5881847;24;20171;-85
2024/03/04 02:39:03;;;;;;;3.97;2.80;;;17.30;66.70;;;;;;5904291;24;20161;-84
2024/03/04 02:41:31;;;;;;;3.92;2.88;;;17.40;67.10;;;;;;5903382;24;20161;-84
2024/03/04 02:44:07;;;;;;;3.90;2.90;;;17.40;67.00;;;;;;5898387;24;20296;-84
2024/03/04 02:46:37;;;;;;;3.28;2.63;;;17.30;67.00;;;;;;5898229;24;20168;-84
2024/03/04 02:49:17;;;;;;;3.72;2.70;;;17.30;66.90;;;;;;5958416;24;20494;-84
2024/03/04 02:51:55;;;;;;;4.53;3.03;;;17.30;67.10;;;;;;5958423;24;20312;-83
2024/03/04 02:54:28;;;;;;;5.38;3.15;;;17.30;67.00;;;;;;5931670;24;20159;-84
2024/03/04 02:56:56;;;;;;;3.35;2.85;;;17.30;66.90;;;;;;5931210;24;20160;-84
2024/03/04 02:59:35;;;;;;;4.22;2.80;;;17.30;67.00;;;;;;5921881;24;20248;-84
2024/03/04 03:02:17;;;;;;;3.78;2.90;;;17.30;66.90;;;;;;5900063;24;20161;-84
2024/03/04 03:04:48;;;;;;;2.90;2.60;;;17.30;67.10;;;;;;5900532;24;20223;-84
2024/03/04 03:07:19;;;;;;;3.53;2.85;;;17.30;67.20;;;;;;5957043;23;20179;-84
2024/03/04 03:09:50;;;;;;;3.20;2.63;;;17.30;66.90;;;;;;6009948;23;20210;-83
2024/03/04 03:12:17;;;;;;;3.40;2.90;;;17.30;66.70;;;;;;5903606;24;20177;-84
2024/03/04 03:14:58;;;;;;;3.35;3.00;;;17.30;66.90;;;;;;5881177;24;20160;-84
2024/03/04 03:17:25;;;;;;;3.50;3.15;;;17.30;66.70;;;;;;5872226;24;20309;-84
2024/03/04 03:19:54;;;;;;;4.22;2.90;;;17.40;66.70;;;;;;5871952;24;20166;-84
2024/03/04 03:22:27;;;;;;;3.25;2.63;;;17.30;66.80;;;;;;5872579;24;20165;-84
2024/03/04 03:25:06;;;;;;;4.22;3.00;;;17.30;66.90;;;;;;5857643;24;20200;-84
2024/03/04 03:27:43;;;;;;;3.88;2.70;;;17.30;66.90;;;;;;5856221;24;20208;-84
2024/03/04 03:30:10;;;;;;;3.15;2.85;;;17.30;67.10;;;;;;5861274;24;20156;-84
2024/03/04 03:32:45;;;;;;;3.08;2.60;;;17.30;66.70;;;;;;5904229;24;20159;-85
2024/03/04 03:35:11;;;;;;;3.60;2.78;;;17.30;67.70;;;;;;5883436;24;20165;-84
2024/03/04 03:37:54;;;;;;;4.03;2.63;;;17.30;66.80;;;;;;5905953;24;20192;-85
2024/03/04 03:40:21;;;;;;;3.35;2.58;;;17.30;66.70;;;;;;5907568;24;20160;-85
2024/03/04 03:43:10;;;;;;;4.15;3.00;;;17.30;66.90;;;;;;5908684;24;20232;-84
2024/03/04 03:45:47;;;;;;;3.20;2.80;;;17.30;66.90;;;;;;5906977;24;20195;-84
2024/03/04 03:48:16;;;;;;;3.30;3.00;;;17.30;66.70;;;;;;5915754;24;20153;-84
2024/03/04 03:50:45;;;;;;;3.35;2.88;;;17.30;66.90;;;;;;5938870;24;20503;-85
2024/03/04 03:53:16;;;;;;;3.95;2.80;;;17.40;66.50;;;;;;5923039;24;20164;-84
2024/03/04 03:55:50;;;;;;;3.30;2.70;;;17.30;66.80;;;;;;5923859;24;20185;-84
2024/03/04 03:58:21;;;;;;;3.67;2.88;;;17.30;66.80;;;;;;5951384;24;20167;-85
2024/03/04 04:00:52;;;;;;;4.15;2.85;;;17.40;66.90;;;;;;5904894;24;20601;-85
2024/03/04 04:03:17;;;;;;;4.10;3.10;;;17.20;66.60;;;;;;5908622;24;20195;-84
2024/03/04 04:05:48;;;;;;;3.38;2.90;;;17.20;66.80;;;;;;6007128;23;20193;-85
2024/03/04 04:08:18;;;;;;;3.40;2.95;;;17.20;67.00;;;;;;5965073;23;20182;-85
2024/03/04 04:10:45;;;;;;;3.53;3.03;;;17.30;67.00;;;;;;5930184;23;20498;-84
2024/03/04 04:13:13;;;;;;;4.05;3.05;;;17.30;67.00;;;;;;5995346;23;20185;-84
2024/03/04 04:15:51;;;;;;;3.10;2.80;;;17.20;66.90;;;;;;6016588;23;20180;-84
2024/03/04 04:18:30;;;;;;;4.28;2.97;;;17.20;66.80;;;;;;5994416;23;20173;-84
2024/03/04 04:21:00;;;;;;;3.17;2.80;;;17.30;67.00;;;;;;6018491;23;20178;-84
2024/03/04 04:23:27;;;;;;;3.88;3.10;;;17.20;66.90;;;;;;6084854;23;20164;-84
2024/03/04 04:25:56;;;;;;;3.83;3.35;;;17.30;66.80;;;;;;6097363;23;20181;-84
2024/03/04 04:28:25;;;;;;;3.47;3.00;;;17.30;66.90;;;;;;6097474;23;20161;-85
2024/03/04 04:30:52;;;;;;;3.80;3.28;;;17.20;66.80;;;;;;6073649;23;20145;-84
2024/03/04 04:33:37;;;;;;;3.83;3.05;;;17.30;66.70;;;;;;6097367;23;20185;-84
2024/03/04 04:36:28;;;;;;;3.67;3.17;;;17.20;66.70;;;;;;6052090;23;20149;-84
2024/03/04 04:38:54;;;;;;;3.95;3.20;;;17.30;66.80;;;;;;6070708;23;20590;-84
2024/03/04 04:41:31;;;;;;;4.25;2.83;;;17.20;67.40;;;;;;6015109;23;20162;-84
2024/03/04 04:44:09;;;;;;;3.65;2.97;;;17.30;66.70;;;;;;6016684;23;20313;-84
2024/03/04 04:46:41;;;;;;;3.47;3.00;;;17.30;66.90;;;;;;5983145;23;20166;-84
2024/03/04 04:49:13;;;;;;;5.82;3.10;;;17.20;66.60;;;;;;5928112;24;20160;-85
2024/03/04 04:51:47;;;;;;;4.05;3.10;;;17.20;66.50;;;;;;5900375;24;20181;-84
2024/03/04 04:54:31;;;;;;;4.38;3.20;;;17.20;66.80;;;;;;5899372;24;20244;-84
2024/03/04 04:57:03;;;;;;;3.92;2.88;;;17.20;66.80;;;;;;5926418;24;20165;-84
2024/03/04 04:59:51;;;;;;;3.58;2.97;;;17.20;66.60;;;;;;5954912;24;20612;-84
2024/03/04 05:02:44;;;;;;;4.57;3.03;;;17.30;66.70;;;;;;5927083;24;20157;-84
2024/03/04 05:05:16;;;;;;;3.50;2.88;;;17.30;66.80;;;;;;5916940;24;20206;-84
2024/03/04 05:07:47;;;;;;;4.07;3.30;;;17.20;66.80;;;;;;5895611;24;20158;-85
2024/03/04 05:10:16;;;;;;;3.67;3.05;;;17.20;66.90;;;;;;5892601;24;20154;-85
2024/03/04 05:12:54;;;;;;;4.63;3.15;;;17.20;66.70;;;;;;5890609;24;20167;-84
2024/03/04 05:15:45;;;;;;;3.30;2.80;;;17.20;66.80;;;;;;5890858;24;20159;-84
2024/03/04 05:18:15;;;;;;;3.63;2.90;;;17.20;66.40;;;;;;5881690;24;20230;-85
2024/03/04 05:20:48;;;;;;;3.40;2.85;;;17.20;66.60;;;;;;5909667;24;20165;-84
2024/03/04 05:23:19;;;;;;;3.92;2.88;;;17.20;66.90;;;;;;5860100;24;20244;-84
2024/03/04 05:25:48;;;;;;;3.50;3.00;;;17.20;66.90;;;;;;5868281;24;20767;-84
2024/03/04 05:28:45;;;;;;;3.83;2.83;;;17.20;66.80;;;;;;5862043;24;20162;-84
2024/03/04 05:31:18;;;;;;;4.18;3.17;;;17.20;66.90;;;;;;5904436;24;20234;-85
2024/03/04 05:34:06;;;;;;;4.18;3.20;;;17.20;66.80;;;;;;5854978;24;20610;-85
2024/03/04 05:36:34;;;;;;;3.83;3.25;;;17.20;66.90;;;;;;5804959;24;20175;-85
2024/03/04 05:39:23;;;;;;;3.83;2.97;;;17.20;67.60;;;;;;5819972;24;20205;-85
2024/03/04 05:41:56;;;;;;;3.92;3.10;;;17.20;66.80;;;;;;5761441;24;20169;-84
2024/03/04 05:44:36;;;;;;;4.28;3.30;;;17.10;66.70;;;;;;5783737;24;20641;-84
2024/03/04 05:47:09;;;;;;;4.05;3.20;;;17.20;66.70;;;;;;5813340;24;20171;-84
2024/03/04 05:49:49;;;;;;;3.72;3.10;;;17.20;66.90;;;;;;5841210;24;21029;-84
2024/03/04 05:52:18;;;;;;;3.95;2.90;;;17.20;66.80;;;;;;5838784;24;20160;-84
2024/03/04 05:54:57;;;;;;;3.40;3.00;;;17.20;66.80;;;;;;5837278;24;20501;-84
2024/03/04 05:57:26;;;;;;;3.42;3.03;;;17.20;66.80;;;;;;5810095;24;20224;-84
2024/03/04 06:00:03;;;;;;;3.80;2.97;;;17.10;66.40;;;;;;5813508;24;20168;-84
2024/03/04 06:02:36;;;;;;;4.25;3.10;;;17.20;66.60;;;;;;5833272;24;20196;-85
2024/03/04 06:05:02;;;;;;;3.35;3.00;;;17.20;66.80;;;;;;5858421;24;20207;-84
2024/03/04 06:07:30;;;;;;;3.40;3.08;;;17.20;66.80;;;;;;5967123;23;20159;-84
2024/03/04 06:10:23;;;;;;;4.00;3.20;;;17.10;66.80;;;;;;6039399;23;20207;-84
2024/03/04 06:12:51;;;;;;;3.60;2.80;;;17.10;66.80;;;;;;6077751;23;20152;-84
2024/03/04 06:15:27;;;;;;;4.07;3.10;;;17.20;66.90;;;;;;6021070;23;20169;-84
2024/03/04 06:17:53;;;;;;;4.35;3.20;;;17.10;66.80;;;;;;6021318;23;20286;-84
2024/03/04 06:20:30;;;;;;;3.97;3.10;;;17.10;66.80;;;;;;6022652;23;20517;-85
2024/03/04 06:22:56;;;;;;;4.05;3.17;;;17.20;66.50;;;;;;5989482;23;20165;-85
2024/03/04 06:25:22;;;;;;;3.60;3.00;;;17.20;66.70;;;;;;5989363;23;20286;-85
2024/03/04 06:27:49;;;;;;;3.53;3.00;;;17.20;66.70;;;;;;5989874;23;20243;-85
2024/03/04 06:30:29;;;;;;;;;;;;;;;;;;;;;
2024/03/04 06:33:02;;;;;;;3.35;2.92;;;17.20;66.70;;;;;;5927950;24;20244;-85
2024/03/04 06:35:39;;;;;;;3.63;3.20;;;17.20;66.60;;;;;;5908450;24;20308;-85
2024/03/04 06:38:08;;;;;;;4.25;3.22;;;17.10;66.30;;;;;;5908854;24;20545;-85
2024/03/04 06:40:43;;;;;;;4.20;3.20;;;17.20;66.50;;;;;;5907931;24;20169;-85
2024/03/04 06:43:09;;;;;;;3.25;2.90;;;17.30;66.80;;;;;;5907090;24;20553;-84
2024/03/04 06:45:38;;;;;;;3.85;3.10;;;17.10;66.70;;;;;;5907325;24;20195;-85
2024/03/04 06:48:08;;;;;;;3.70;3.20;;;17.10;66.80;;;;;;5930195;24;20156;-85
2024/03/04 06:50:40;;;;;;;3.72;3.25;;;17.10;66.70;;;;;;5912612;24;20167;-85
2024/03/04 06:53:27;;;;;;;3.65;3.03;;;17.20;66.80;;;;;;5953960;24;20156;-84
2024/03/04 06:55:53;;;;;;;5.32;3.42;;;17.20;66.50;;;;;;5963713;24;20159;-85
2024/03/04 06:58:23;;;;;;;3.67;3.10;;;17.20;66.40;;;;;;5965623;23;20210;-85
2024/03/04 07:00:51;;;;;;;4.05;3.25;;;17.20;66.40;;;;;;6015182;23;20158;-85
2024/03/04 07:03:17;;;;;;;3.20;2.83;;;17.20;66.50;;;;;;5999391;23;20260;-84
2024/03/04 07:05:43;;;;;;;3.40;2.72;;;17.20;66.50;;;;;;6021266;23;20272;-85
2024/03/04 07:08:12;;;;;;;3.70;3.03;;;17.30;66.40;;;;;;6022258;23;20153;-85
2024/03/04 07:10:45;;;;;;;4.57;3.20;;;17.20;66.10;;;;;;6033222;23;20192;-85
2024/03/04 07:13:15;;;;;;;5.03;3.60;;;17.20;65.80;;;;;;6059769;23;20151;-84
2024/03/04 07:15:46;;;;;;;4.72;3.17;;;17.30;66.10;;;;;;6112292;23;20136;-85
2024/03/04 07:18:22;;;;;;;3.22;2.67;;;17.30;66.10;;;;;;6072283;23;20224;-85
2024/03/04 07:20:58;;;;;;;3.38;3.00;;;17.30;65.90;;;;;;5941721;24;20169;-85
2024/03/04 07:23:41;;;;;;;4.50;3.45;;;17.30;65.80;;;;;;5919779;24;20711;-85
2024/03/04 07:26:24;;;;;;;3.75;3.13;;;17.30;65.70;;;;;;5966014;24;20167;-85
2024/03/04 07:28:51;;;;;;;4.18;3.10;;;17.30;65.10;;;;;;5942847;24;20162;-85
2024/03/04 07:31:19;;;;;;;4.93;3.08;;;17.40;64.70;;;;;;5941861;24;20159;-86
2024/03/04 07:34:08;;;;;;;3.55;2.95;;;17.50;63.60;;;;;;5939816;24;20163;-85
2024/03/04 07:36:39;;;;;;;4.47;3.30;;;17.60;63.30;;;;;;5907937;24;20189;-87
2024/03/04 07:39:10;;;;;;;3.45;3.00;;;17.70;63.90;;;;;;5933557;24;20167;-86
2024/03/04 07:41:46;;;;;;;3.65;3.00;;;17.70;63.20;;;;;;5909061;23;20157;-86
2024/03/04 07:44:15;;;;;;;4.03;3.22;;;17.70;63.10;;;;;;5992073;23;20201;-85
2024/03/04 07:46:47;;;;;;;3.67;3.13;;;17.70;62.80;;;;;;6019575;23;20159;-83
2024/03/04 07:50:01;;;;;;;5.18;3.30;;;17.70;63.20;;;;;;5997401;23;20633;-86
2024/03/04 08:02:29;;;;;;;4.25;3.28;;;17.70;63.80;;;;;;5601316;25;20182;-85
2024/03/04 08:04:58;;;;;;;4.30;3.20;;;17.70;63.70;;;;;;5570120;25;20233;-85
2024/03/04 08:07:46;;;;;;;5.15;3.03;;;17.70;64.20;;;;;;5561180;25;20176;-86
2024/03/04 08:10:17;;;;;;;3.47;3.00;;;17.70;64.10;;;;;;5601612;25;20165;-86
2024/03/04 08:13:16;;;;;;;4.15;2.97;;;17.70;64.30;;;;;;5621101;25;20161;-85
2024/03/04 08:15:48;;;;;;;4.20;3.00;;;17.70;64.10;;;;;;5599066;25;20202;-85
2024/03/04 08:18:44;;;;;;;5.57;3.10;;;17.80;63.10;;;;;;5556872;25;20234;-85
2024/03/04 08:21:20;;;;;;;3.97;3.05;;;17.80;63.40;;;;;;5556050;25;20166;-85
2024/03/04 08:23:59;;;;;;;3.67;3.08;;;17.90;62.40;;;;;;5570646;25;20277;-86
2024/03/04 08:26:31;;;;;;;3.70;3.20;;;17.90;63.00;;;;;;5622512;25;20178;-85
2024/03/04 08:28:59;;;;;;;6.68;3.03;;;17.80;63.50;;;;;;5602179;25;20169;-84
2024/03/04 08:31:25;;;;;;;4.03;2.97;;;17.80;64.00;;;;;;5603862;25;20533;-85
2024/03/04 08:33:51;;;;;;;5.13;3.00;;;17.70;63.80;;;;;;5671124;25;20171;-85
2024/03/04 08:36:17;;;;;;;4.22;3.40;;;17.80;63.80;;;;;;5740501;24;20169;-85
2024/03/04 10:51:55;;;;;;;4.15;2.92;;;18.10;64.60;;;;;;6162097;23;20142;-85
2024/03/04 10:58:49;;;;;;;4.32;2.97;;;18.00;64.90;;;;;;6038340;23;20213;-86
2024/03/04 11:02:24;;;;;;;5.50;2.92;;;18.10;64.50;;;;;;6003222;23;20189;-86
2024/03/04 11:11:54;;;;;;;5.55;3.00;;;18.00;65.00;;;;;;5770421;24;20192;-86
2024/03/04 11:14:38;;;;;;;4.53;3.13;;;17.90;65.40;;;;;;5719185;25;20166;-86
2024/03/04 11:20:57;;;;;;;5.07;2.75;;;17.90;64.70;;;;;;5656152;25;20174;-86
2024/03/04 11:23:36;;;;;;;5.43;3.22;;;17.90;65.60;;;;;;5667538;25;20168;-85
2024/03/04 11:26:14;;;;;;;9.45;3.70;;;17.90;65.20;;;;;;5664942;25;20220;-85
2024/03/04 11:29:33;;;;;;;4.07;2.78;;;17.90;65.30;;;;;;5671653;25;20166;-85
2024/03/04 11:32:00;;;;;;;4.93;3.35;;;18.00;64.90;;;;;;5653383;25;20168;-86
2024/03/04 11:35:07;;;;;;;6.07;2.90;;;18.00;64.80;;;;;;5679396;25;20213;-85
2024/03/04 11:37:49;;;;;;;4.95;3.30;;;18.00;64.50;;;;;;5741054;25;20590;-86
2024/03/04 11:40:27;;;;;;;4.75;2.85;;;18.10;64.30;;;;;;5734774;24;20167;-86
2024/03/04 11:42:57;;;;;;;6.20;3.28;;;18.00;64.10;;;;;;5799432;24;20265;-86
2024/03/04 11:49:23;;;;;;;5.10;2.83;;;18.00;64.30;;;;;;5759269;24;20225;-85
2024/03/04 11:55:32;;;;;;;9.07;3.20;;;18.00;64.40;;;;;;5791663;24;20168;-84
2024/03/04 11:58:00;;;;;;;8.43;3.38;;;18.00;64.40;;;;;;5782558;24;20207;-86
2024/03/04 12:00:25;;;;;;;6.60;3.33;;;18.00;64.00;;;;;;5799912;24;20251;-85
2024/03/04 12:03:02;;;;;;;14.13;3.28;;;18.00;64.50;;;;;;5776574;24;20187;-87
2024/03/04 12:05:31;;;;;;;12.02;4.07;;;18.10;64.10;;;;;;5802282;24;20198;-85
2024/03/04 12:08:01;;;;;;;10.85;3.55;;;18.10;64.20;;;;;;5786540;24;20164;-86
2024/03/04 12:10:36;;;;;;;6.70;2.97;;;18.10;64.20;;;;;;5913704;24;20179;-85
2024/03/04 12:13:02;;;;;;;7.07;3.42;;;18.00;64.40;;;;;;5942289;23;20240;-85
2024/03/04 12:15:42;;;;;;;7.07;2.80;;;18.00;64.00;;;;;;5993299;23;20242;-87
2024/03/04 12:18:11;;;;;;;4.75;3.20;;;18.10;64.20;;;;;;6006640;23;20157;-83
2024/03/04 12:20:39;;;;;;;7.03;3.33;;;18.10;64.20;;;;;;5959664;24;20473;-86
2024/03/04 12:23:35;;;;;;;3.72;2.80;;;18.10;63.60;;;;;;5902990;24;20162;-86
2024/03/04 12:26:14;;;;;;;6.05;3.00;;;18.10;63.80;;;;;;5935088;24;20187;-85
2024/03/04 12:29:04;;;;;;;5.00;3.35;;;18.10;63.80;;;;;;5933534;24;20155;-85
2024/03/04 12:31:52;;;;;;;3.58;3.17;;;18.20;63.30;;;;;;5857849;24;20169;-86
2024/03/04 12:38:00;;;;;;;3.80;2.88;;;18.20;63.20;;;;;;5902162;24;20248;-86
2024/03/04 12:40:43;;;;;;;4.82;3.30;;;18.20;64.00;;;;;;5863006;24;20225;-86
2024/03/04 12:43:22;;;;;;;5.13;3.13;;;18.20;63.20;;;;;;5880054;24;20539;-86
2024/03/04 12:46:04;;;;;;;3.83;2.80;;;18.20;63.00;;;;;;5904198;24;20189;-86
2024/03/04 12:48:37;;;;;;;5.97;2.85;;;18.20;63.60;;;;;;5857501;24;20209;-86
2024/03/04 12:51:19;;;;;;;4.63;2.83;;;18.20;63.60;;;;;;5920706;24;20159;-86
2024/03/04 12:53:45;;;;;;;9.18;3.10;;;18.20;63.20;;;;;;5954297;23;20162;-85
2024/03/04 12:56:24;;;;;;;5.32;3.50;;;18.20;63.40;;;;;;6018229;23;20168;-86
2024/03/04 12:59:16;;;;;;;5.63;2.95;;;18.20;63.60;;;;;;6008230;23;20152;-85
2024/03/04 13:01:41;;;;;;;8.20;3.35;;;18.20;63.60;;;;;;6051257;23;20188;-86
2024/03/04 13:04:07;;;;;;;5.70;3.17;;;18.20;63.60;;;;;;6076178;23;20157;-86
2024/03/04 13:06:58;;;;;;;6.63;3.05;;;18.20;63.70;;;;;;6029042;23;20183;-86
2024/03/04 13:12:16;;;;;;;7.00;3.40;;;18.20;63.00;;;;;;6022339;23;20602;-86
2024/03/04 13:14:50;;;;;;;8.23;2.88;;;18.20;63.00;;;;;;6018417;23;20248;-85
2024/03/04 13:17:20;;;;;;;4.07;2.97;;;18.20;63.50;;;;;;6018831;23;20165;-86
2024/03/04 13:20:22;;;;;;;4.22;3.13;;;18.20;63.10;;;;;;6018206;23;20617;-86
2024/03/04 13:22:51;;;;;;;5.97;3.10;;;18.20;62.90;;;;;;5994778;23;20257;-86
2024/03/04 13:25:46;;;;;;;5.30;3.05;;;18.20;63.30;;;;;;5993956;23;20178;-85
2024/03/04 13:28:16;;;;;;;4.30;2.83;;;18.20;63.20;;;;;;6018259;23;20572;-86
2024/03/04 13:30:52;;;;;;;6.28;3.30;;;18.20;63.40;;;;;;5995948;23;20245;-87
2024/03/04 13:33:33;;;;;;;5.97;3.00;;;18.20;63.00;;;;;;6031202;23;20184;-86
2024/03/04 13:36:03;;;;;;;5.25;2.90;;;18.10;64.00;;;;;;6028753;23;20156;-86
2024/03/04 13:38:57;;;;;;;6.13;3.05;;;18.10;64.30;;;;;;6029000;23;20157;-86
2024/03/04 13:41:48;;;;;;;4.00;2.97;;;18.10;64.10;;;;;;6003092;23;20160;-86
2024/03/04 13:44:24;;;;;;;5.57;3.15;;;18.10;63.30;;;;;;5986644;23;20181;-85
2024/03/04 13:46:57;;;;;;;4.20;2.75;;;18.10;63.70;;;;;;5976738;23;20233;-86
2024/03/04 13:49:29;;;;;;;3.97;2.78;;;18.20;63.40;;;;;;6010888;23;20201;-85
2024/03/04 13:52:16;;;;;;;6.40;3.10;;;18.20;63.30;;;;;;6025556;23;20197;-86
2024/03/04 13:55:25;;;;;;;6.75;2.85;;;18.20;62.90;;;;;;5993986;23;20185;-86
2024/03/04 13:58:28;;;;;;;6.75;3.08;;;18.10;63.40;;;;;;6019086;23;20504;-86
2024/03/04 14:05:13;;;;;;;6.30;3.15;;;18.10;63.40;;;;;;6055617;23;20196;-85
2024/03/04 14:07:59;;;;;;;4.97;2.90;;;18.10;63.20;;;;;;5990009;23;20154;-85
2024/03/04 14:10:45;;;;;;;5.38;3.20;;;18.20;63.00;;;;;;5923640;23;20162;-86
2024/03/04 14:13:13;;;;;;;3.83;3.22;;;18.10;64.00;;;;;;5920624;23;20218;-85
2024/03/04 14:16:18;;;;;;;3.60;2.63;;;18.00;63.20;;;;;;6021876;23;20258;-85
2024/03/04 14:18:44;;;;;;;5.80;3.42;;;18.10;63.00;;;;;;5991990;23;20277;-86
2024/03/04 14:21:23;;;;;;;4.68;2.83;;;18.20;63.20;;;;;;5969499;23;20159;-86
2024/03/04 14:23:53;;;;;;;4.60;2.83;;;18.10;63.50;;;;;;5967629;23;20156;-85
2024/03/04 14:26:38;;;;;;;3.63;2.80;;;18.10;64.00;;;;;;5994807;23;20259;-85
2024/03/04 14:29:58;;;;;;;4.25;2.78;;;18.00;64.10;;;;;;5964171;24;20182;-86
2024/03/04 14:32:32;;;;;;;5.85;3.15;;;18.00;64.10;;;;;;5986592;24;20151;-85
2024/03/04 14:35:35;;;;;;;4.00;2.95;;;18.00;63.70;;;;;;5959288;24;20155;-86
2024/03/04 14:38:03;;;;;;;4.85;2.80;;;18.10;64.10;;;;;;5936755;24;20163;-85
2024/03/04 14:40:50;;;;;;;4.25;2.67;;;18.00;64.10;;;;;;5985980;24;20238;-85
2024/03/04 14:43:32;;;;;;;3.30;2.97;;;18.00;64.10;;;;;;5973498;23;20165;-85
2024/03/04 14:46:24;;;;;;;5.70;3.00;;;18.10;63.40;;;;;;5902790;24;20279;-86
2024/03/04 14:52:24;;;;;;;4.03;2.80;;;18.10;64.00;;;;;;5908346;24;20210;-85
2024/03/04 14:58:25;;;;;;;4.47;2.90;;;18.10;63.00;;;;;;6015578;23;20163;-85
2024/03/04 15:07:36;;;;;;;3.85;2.90;;;18.10;63.20;;;;;;6017760;23;20141;-84
2024/03/04 15:10:13;;;;;;;5.95;3.17;;;18.10;63.30;;;;;;5941834;24;20175;-88
2024/03/04 15:16:09;;;;;;;4.25;2.97;;;18.00;63.40;;;;;;5893987;24;20197;-85
2024/03/04 15:19:13;;;;;;;3.72;2.80;;;18.00;64.10;;;;;;5939927;24;20193;-85
2024/03/04 15:25:51;;;;;;;;;;;;;;;;;;;;;
2024/03/04 15:28:55;;;;;;;4.13;2.90;;;18.00;64.20;;;;;;5908230;24;20629;-83
2024/03/04 15:35:54;;;;;;;5.03;2.80;;;18.00;63.90;;;;;;5912865;24;20164;-86
2024/03/04 15:45:45;;;;;;;;;;;;;;;;;;;;;
2024/03/04 17:06:52;;;;;;;8.25;2.70;;;18.40;63.40;;;;;;6107039;23;20541;-84
2024/03/04 18:52:24;;;;;;;;;;;;;;;;;;;;;
2024/03/04 18:55:28;;;;;;;4.65;3.13;;;18.70;65.40;;;;;;5885677;24;20600;-86
2024/03/04 19:30:32;;;;;;;4.20;3.20;;;18.70;65.70;;;;;;5599500;25;20677;-87
2024/03/04 21:19:56;;;;;;;5.30;2.93;;;18.30;67.00;;;;;;6062986;22;2042614;-87
2024/03/04 21:22:38;;;;;;;6.50;3.28;;;18.30;66.80;;;;;;6252494;22;20212;-87
2024/03/04 21:25:35;;;;;;;4.90;3.10;;;18.30;66.90;;;;;;6211468;23;20180;-87
2024/03/04 21:28:04;;;;;;;3.33;2.72;;;18.30;66.80;;;;;;6083903;23;20157;-86
2024/03/04 21:31:10;;;;;;;4.30;2.90;;;18.30;67.00;;;;;;6083461;23;20156;-88
2024/03/04 21:33:41;;;;;;;4.95;3.00;;;18.30;66.70;;;;;;6061224;23;20184;-86
2024/03/04 21:36:51;;;;;;;4.07;2.80;;;18.30;66.20;;;;;;6061197;23;20209;-86
2024/03/04 21:39:40;;;;;;;4.60;2.80;;;18.30;66.80;;;;;;6078897;23;20183;-88
2024/03/04 21:42:34;;;;;;;3.45;2.88;;;18.30;66.80;;;;;;6018779;23;20153;-87
2024/03/04 21:45:34;;;;;;;6.00;3.20;;;18.30;66.90;;;;;;5976603;24;20159;-87
2024/03/04 21:48:28;;;;;;;4.70;2.78;;;18.30;66.70;;;;;;5943519;24;20164;-83
2024/03/04 21:51:16;;;;;;;4.47;2.55;;;18.30;66.70;;;;;;5898877;24;20161;-86
2024/03/04 21:53:42;;;;;;;5.10;3.10;;;18.20;66.90;;;;;;5889068;24;20172;-85
2024/03/04 21:56:27;;;;;;;5.20;3.22;;;18.20;67.00;;;;;;5851718;24;20194;-86
2024/03/04 21:59:24;;;;;;;3.55;2.92;;;18.20;67.00;;;;;;5884380;24;20177;-85
2024/03/04 22:02:25;;;;;;;5.72;2.90;;;18.20;66.80;;;;;;5960732;24;20275;-85
2024/03/04 22:05:03;;;;;;;7.57;2.80;;;18.20;66.90;;;;;;5977378;24;20156;-85
2024/03/04 22:07:41;;;;;;;3.63;2.53;;;18.20;66.70;;;;;;5921041;24;20171;-86
2024/03/04 22:13:36;;;;;;;6.28;2.80;;;18.20;66.70;;;;;;5844120;24;20478;-85
2024/03/04 22:16:31;;;;;;;;;;;;;;;;;;;;;
2024/03/04 22:19:06;;;;;;;5.07;3.13;;;18.20;66.80;;;;;;5847738;24;20159;-86
2024/03/04 22:22:11;;;;;;;5.18;3.15;;;18.20;66.90;;;;;;5873574;24;20205;-85
2024/03/04 22:25:08;;;;;;;4.70;2.95;;;18.20;67.00;;;;;;5832868;24;20204;-86
2024/03/04 22:27:42;;;;;;;4.00;2.90;;;18.20;66.80;;;;;;5858591;24;20207;-86
2024/03/04 22:30:31;;;;;;;5.68;2.67;;;18.20;66.80;;;;;;5939229;24;20186;-86
2024/03/04 22:33:13;;;;;;;5.75;2.78;;;18.20;66.90;;;;;;5909788;24;20618;-85
2024/03/04 22:35:49;;;;;;;4.45;2.90;;;18.20;67.20;;;;;;5916190;24;20193;-86